createdAt,value
2019-03-26T00:01:44.604Z,92.50
2019-03-26T00:04:14.934Z,92.50
2019-03-26T00:06:45.696Z,92.30
2019-03-26T00:09:35.550Z,92.40
2019-03-26T00:12:05.913Z,92.60
2019-03-26T00:14:36.236Z,92.70
2019-03-26T00:17:06.962Z,93.00
2019-03-26T00:19:37.672Z,93.20
2019-03-26T00:22:08.075Z,93.60
2019-03-26T00:24:39.345Z,94.20
2019-03-26T00:27:10.049Z,94.70
2019-03-26T00:29:40.420Z,95.20
2019-03-26T00:32:11.108Z,95.10
2019-03-26T00:34:41.720Z,95.10
2019-03-26T00:37:12.848Z,95.20
2019-03-26T00:39:43.792Z,95.20
2019-03-26T00:42:14.214Z,95.50
2019-03-26T00:44:45.654Z,95.60
2019-03-26T00:47:16.264Z,95.60
2019-03-26T00:49:46.662Z,95.50
2019-03-26T00:52:17.297Z,95.90
2019-03-26T00:54:47.719Z,95.80
2019-03-26T00:57:18.046Z,95.90
2019-03-26T00:59:48.724Z,96.00
2019-03-26T01:02:19.103Z,96.00
2019-03-26T01:04:49.735Z,96.20
2019-03-26T01:07:20.443Z,96.20
2019-03-26T01:10:13.779Z,96.20
2019-03-26T01:12:44.139Z,96.10
2019-03-26T01:15:14.463Z,96.10
2019-03-26T01:17:44.863Z,96.20
2019-03-26T01:20:15.596Z,96.30
2019-03-26T01:22:46.687Z,96.50
2019-03-26T01:25:17.034Z,96.50
2019-03-26T01:27:47.731Z,96.60
2019-03-26T01:30:18.218Z,96.60
2019-03-26T01:32:48.897Z,96.60
2019-03-26T01:35:19.958Z,96.70
2019-03-26T01:37:51.081Z,96.60
2019-03-26T01:40:21.731Z,96.90
2019-03-26T01:42:52.459Z,96.90
2019-03-26T01:45:23.151Z,97.20
2019-03-26T01:47:53.854Z,97.10
2019-03-26T01:50:24.222Z,97.20
2019-03-26T01:52:54.962Z,97.20
2019-03-26T01:55:25.611Z,97.40
2019-03-26T01:57:56.269Z,97.40
2019-03-26T02:00:26.994Z,97.50
2019-03-26T02:02:58.029Z,97.60
2019-03-26T02:05:28.694Z,97.70
2019-03-26T02:08:00.123Z,98.00
2019-03-26T02:10:30.474Z,98.10
2019-03-26T02:13:01.170Z,98.20
2019-03-26T02:15:32.353Z,98.30
2019-03-26T02:18:02.964Z,98.40
2019-03-26T02:20:33.655Z,98.70
2019-03-26T02:23:04.016Z,98.80
2019-03-26T02:25:34.739Z,98.90
2019-03-26T02:28:05.365Z,99.00
2019-03-26T02:30:35.752Z,98.90
2019-03-26T02:33:06.460Z,98.90
2019-03-26T02:35:37.225Z,98.90
2019-03-26T02:38:07.651Z,98.90
2019-03-26T02:40:38.334Z,98.90
2019-03-26T02:43:08.687Z,98.80
2019-03-26T02:45:39.084Z,98.80
2019-03-26T02:48:10.150Z,98.80
2019-03-26T02:50:40.501Z,98.80
2019-03-26T02:53:10.826Z,98.90
2019-03-26T02:55:41.545Z,99.00
2019-03-26T02:58:11.940Z,99.00
2019-03-26T03:00:42.628Z,99.20
2019-03-26T03:03:13.395Z,99.20
2019-03-26T03:05:43.778Z,99.10
2019-03-26T03:08:14.279Z,99.20
2019-03-26T03:10:44.943Z,99.50
2019-03-26T03:13:15.264Z,99.60
2019-03-26T03:15:46.011Z,99.90
2019-03-26T03:18:16.629Z,99.90
2019-03-26T03:20:48.133Z,99.90
2019-03-26T03:23:18.552Z,99.90
2019-03-26T03:25:49.400Z,99.90
2019-03-26T03:28:19.886Z,99.90
2019-03-26T03:30:50.256Z,99.90
2019-03-26T03:33:20.679Z,99.90
2019-03-26T03:35:52.929Z,99.90
2019-03-26T03:38:23.051Z,99.90
2019-03-26T03:40:53.777Z,99.90
2019-03-26T03:43:24.106Z,99.90
2019-03-26T03:45:55.245Z,99.90
2019-03-26T03:48:25.623Z,99.90
2019-03-26T03:50:56.635Z,99.90
2019-03-26T03:53:26.981Z,99.90
2019-03-26T03:55:57.339Z,99.80
2019-03-26T03:58:27.706Z,99.80
2019-03-26T04:00:58.030Z,99.70
2019-03-26T04:03:28.433Z,99.90
2019-03-26T04:06:08.888Z,99.90
2019-03-26T04:08:32.374Z,99.80
2019-03-26T04:11:03.203Z,99.80
2019-03-26T04:13:33.853Z,99.70
2019-03-26T04:16:04.889Z,99.50
2019-03-26T04:18:35.482Z,99.40
2019-03-26T04:21:05.862Z,99.40
2019-03-26T04:23:37.292Z,99.30
2019-03-26T04:26:08.381Z,99.40
2019-03-26T04:28:39.619Z,99.40
2019-03-26T04:31:10.272Z,99.70
2019-03-26T04:33:40.585Z,99.60
2019-03-26T04:36:24.511Z,99.60
2019-03-26T04:38:43.756Z,99.70
2019-03-26T04:41:14.412Z,99.60
2019-03-26T04:43:44.790Z,99.70
2019-03-26T04:46:15.279Z,99.90
2019-03-26T04:48:46.316Z,99.90
2019-03-26T04:51:17.240Z,99.80
2019-03-26T04:53:47.889Z,99.90
2019-03-26T04:56:18.533Z,99.90
2019-03-26T04:58:49.641Z,99.90
2019-03-26T05:01:19.985Z,99.90
2019-03-26T05:03:50.623Z,99.90
2019-03-26T05:06:21.612Z,99.90
2019-03-26T05:08:51.911Z,99.90
2019-03-26T05:11:22.285Z,99.90
2019-03-26T05:13:53.069Z,99.90
2019-03-26T05:16:23.520Z,99.90
2019-03-26T05:18:54.291Z,99.90
2019-03-26T05:21:25.276Z,99.90
2019-03-26T05:23:56.029Z,99.90
2019-03-26T05:26:26.748Z,99.90
2019-03-26T05:28:57.087Z,99.90
2019-03-26T05:31:27.531Z,99.90
2019-03-26T05:33:58.263Z,99.80
2019-03-26T05:36:28.931Z,99.60
2019-03-26T05:38:59.919Z,99.70
2019-03-26T05:41:30.622Z,99.80
2019-03-26T05:44:01.267Z,99.80
2019-03-26T05:46:31.596Z,99.70
2019-03-26T05:49:01.948Z,99.70
2019-03-26T05:51:32.692Z,99.40
2019-03-26T05:54:03.747Z,99.20
2019-03-26T05:56:34.127Z,99.20
2019-03-26T05:59:04.589Z,99.50
2019-03-26T06:01:35.211Z,99.30
2019-03-26T06:04:05.866Z,99.40
2019-03-26T06:06:36.220Z,99.60
2019-03-26T06:09:06.771Z,99.80
2019-03-26T06:11:37.826Z,99.90
2019-03-26T06:14:08.802Z,99.90
2019-03-26T06:16:39.165Z,99.90
2019-03-26T06:19:09.504Z,99.90
2019-03-26T06:21:40.162Z,99.70
2019-03-26T06:24:10.794Z,99.10
2019-03-26T06:26:41.112Z,98.80
2019-03-26T06:29:11.463Z,98.70
2019-03-26T06:31:41.850Z,97.80
2019-03-26T06:34:12.236Z,97.70
2019-03-26T06:36:42.922Z,97.10
2019-03-26T06:39:14.049Z,96.50
2019-03-26T06:41:45.128Z,96.10
2019-03-26T06:44:15.477Z,96.00
2019-03-26T06:46:46.495Z,95.70
2019-03-26T06:49:17.559Z,95.50
2019-03-26T06:51:48.192Z,95.20
2019-03-26T06:54:18.782Z,94.60
2019-03-26T06:56:49.373Z,94.90
2019-03-26T06:59:19.734Z,94.20
2019-03-26T07:01:50.095Z,94.20
2019-03-26T07:04:20.576Z,93.90
2019-03-26T07:06:51.292Z,93.80
2019-03-26T07:09:21.678Z,93.50
2019-03-26T07:11:52.045Z,93.00
2019-03-26T07:14:22.770Z,92.00
2019-03-26T07:16:53.514Z,92.10
2019-03-26T07:19:24.210Z,92.10
2019-03-26T07:21:54.939Z,92.10
2019-03-26T07:24:25.379Z,91.10
2019-03-26T07:26:55.739Z,90.70
2019-03-26T07:29:26.366Z,90.20
2019-03-26T07:31:56.743Z,90.30
2019-03-26T07:34:27.491Z,90.60
2019-03-26T07:36:58.485Z,90.30
2019-03-26T07:39:28.879Z,90.20
2019-03-26T07:41:59.231Z,90.40
2019-03-26T07:44:29.581Z,90.30
2019-03-26T07:47:00.314Z,89.00
2019-03-26T07:49:31.497Z,90.00
2019-03-26T07:52:02.336Z,89.30
2019-03-26T07:54:32.927Z,89.50
2019-03-26T07:57:03.364Z,89.70
2019-03-26T07:59:34.075Z,87.60
2019-03-26T08:02:04.709Z,87.70
2019-03-26T08:04:35.448Z,86.90
2019-03-26T08:07:05.797Z,85.70
2019-03-26T08:09:37.154Z,85.70
2019-03-26T08:12:08.366Z,84.00
2019-03-26T08:14:39.028Z,82.20
2019-03-26T08:17:10.007Z,82.80
2019-03-26T08:19:40.693Z,81.50
2019-03-26T08:22:11.133Z,82.60
2019-03-26T08:24:42.249Z,80.40
2019-03-26T08:27:12.941Z,79.20
2019-03-26T08:29:43.294Z,75.90
2019-03-26T08:32:14.360Z,73.50
2019-03-26T08:34:46.710Z,68.70
2019-03-26T08:37:17.249Z,68.00
2019-03-26T08:39:47.622Z,66.70
2019-03-26T08:42:18.498Z,67.40
2019-03-26T08:44:49.194Z,61.70
2019-03-26T08:47:19.892Z,63.10
2019-03-26T08:49:50.289Z,61.60
2019-03-26T08:52:20.727Z,59.20
2019-03-26T08:54:51.078Z,55.30
2019-03-26T08:57:21.911Z,54.50
2019-03-26T08:59:53.082Z,54.20
2019-03-26T09:02:23.437Z,55.30
2019-03-26T09:04:53.791Z,51.00
2019-03-26T09:07:24.163Z,52.00
2019-03-26T09:09:54.894Z,54.50
2019-03-26T09:12:25.623Z,54.60
2019-03-26T09:14:55.978Z,53.70
2019-03-26T09:17:26.338Z,54.20
2019-03-26T09:19:56.702Z,53.40
2019-03-26T09:22:27.425Z,52.40
2019-03-26T09:24:58.192Z,52.10
2019-03-26T09:27:28.581Z,52.20
2019-03-26T09:29:59.001Z,52.80
2019-03-26T09:32:29.675Z,50.90
2019-03-26T09:35:00.847Z,50.80
2019-03-26T09:37:31.274Z,50.00
2019-03-26T09:40:02.407Z,50.70
2019-03-26T09:42:32.762Z,50.70
2019-03-26T09:45:04.149Z,50.30
2019-03-26T09:47:34.582Z,48.50
2019-03-26T09:50:08.513Z,49.10
2019-03-26T09:52:38.982Z,48.00
2019-03-26T09:55:09.744Z,46.30
2019-03-26T09:57:40.122Z,45.40
2019-03-26T10:00:12.381Z,45.70
2019-03-26T10:02:43.548Z,44.60
2019-03-26T10:05:14.046Z,43.80
2019-03-26T10:07:44.397Z,42.90
2019-03-26T10:10:15.176Z,43.40
2019-03-26T10:12:45.893Z,44.40
2019-03-26T10:15:16.480Z,44.00
2019-03-26T10:17:47.111Z,44.30
2019-03-26T10:20:17.468Z,46.50
2019-03-26T10:22:47.851Z,49.10
2019-03-26T10:25:18.521Z,54.20
2019-03-26T10:27:49.155Z,55.50
2019-03-26T10:30:34.706Z,52.50
2019-03-26T10:33:05.675Z,51.00
2019-03-26T10:35:36.040Z,51.00
2019-03-26T10:38:06.589Z,51.30
2019-03-26T10:40:39.191Z,48.40
2019-03-26T10:43:09.532Z,48.00
2019-03-26T10:45:40.324Z,48.40
2019-03-26T10:48:10.680Z,48.60
2019-03-26T10:50:41.030Z,46.90
2019-03-26T10:53:11.534Z,47.00
2019-03-26T10:55:42.357Z,47.60
2019-03-26T10:58:12.742Z,49.60
2019-03-26T11:00:43.483Z,51.00
2019-03-26T11:03:14.726Z,53.10
2019-03-26T11:05:45.882Z,52.80
2019-03-26T11:08:16.734Z,56.20
2019-03-26T11:10:47.748Z,57.20
2019-03-26T11:13:19.689Z,60.60
2019-03-26T11:15:50.106Z,62.40
2019-03-26T11:18:20.462Z,57.90
2019-03-26T11:21:01.801Z,56.30
2019-03-26T11:23:23.271Z,56.90
2019-03-26T11:25:53.985Z,56.30
2019-03-26T11:28:25.388Z,51.90
2019-03-26T11:30:56.436Z,51.10
2019-03-26T11:33:27.141Z,48.20
2019-03-26T11:35:57.500Z,47.20
2019-03-26T11:38:28.179Z,48.60
2019-03-26T11:40:58.541Z,48.00
2019-03-26T11:43:28.896Z,48.00
2019-03-26T11:45:59.796Z,48.50
2019-03-26T11:48:30.203Z,46.50
2019-03-26T11:51:00.560Z,46.40
2019-03-26T11:53:31.778Z,47.30
2019-03-26T11:56:02.647Z,49.00
2019-03-26T11:58:33.272Z,49.60
2019-03-26T12:01:04.421Z,51.20
2019-03-26T12:03:35.027Z,51.10
2019-03-26T12:06:05.392Z,51.90
2019-03-26T12:08:35.798Z,51.30
2019-03-26T12:11:06.149Z,51.10
2019-03-26T12:13:36.501Z,51.10
2019-03-26T12:16:26.993Z,52.90
2019-03-26T12:18:57.348Z,54.90
2019-03-26T12:21:27.792Z,56.30
2019-03-26T12:23:58.270Z,58.60
2019-03-26T12:26:28.655Z,61.70
2019-03-26T12:28:59.299Z,68.00
2019-03-26T12:31:29.656Z,80.70
2019-03-26T12:34:00.061Z,81.90
2019-03-26T12:36:39.984Z,85.50
2019-03-26T12:39:02.824Z,90.90
2019-03-26T12:41:33.169Z,92.90
2019-03-26T12:44:03.556Z,93.80
2019-03-26T12:46:34.160Z,94.90
2019-03-26T12:49:05.050Z,93.80
2019-03-26T12:51:35.708Z,94.00
2019-03-26T12:54:06.106Z,93.30
2019-03-26T12:56:36.820Z,94.30
2019-03-26T12:59:07.590Z,95.00
2019-03-26T13:01:37.939Z,95.80
2019-03-26T13:04:12.764Z,92.70
2019-03-26T13:06:40.648Z,88.70
2019-03-26T13:09:11.598Z,89.20
2019-03-26T13:11:42.359Z,86.30
2019-03-26T13:14:12.735Z,85.40
2019-03-26T13:16:43.430Z,90.80
2019-03-26T13:19:14.720Z,85.90
2019-03-26T13:21:45.421Z,84.50
2019-03-26T13:24:16.265Z,86.90
2019-03-26T13:26:48.976Z,89.70
2019-03-26T13:29:19.013Z,89.00
2019-03-26T13:31:49.663Z,84.20
2019-03-26T13:34:20.382Z,85.40
2019-03-26T13:36:51.137Z,86.90
2019-03-26T13:39:21.763Z,89.10
2019-03-26T13:41:52.187Z,83.20
2019-03-26T13:44:22.787Z,87.10
2019-03-26T13:46:54.798Z,86.40
2019-03-26T13:49:25.148Z,89.10
2019-03-26T13:51:55.528Z,86.60
2019-03-26T13:54:26.278Z,85.70
2019-03-26T13:56:56.972Z,86.70
2019-03-26T13:59:27.655Z,79.60
2019-03-26T14:01:57.997Z,75.50
2019-03-26T14:04:28.723Z,77.90
2019-03-26T14:07:02.221Z,76.00
2019-03-26T14:09:33.422Z,73.10
2019-03-26T14:12:03.825Z,73.50
2019-03-26T14:14:34.351Z,69.20
2019-03-26T14:17:05.688Z,70.80
2019-03-26T14:19:36.262Z,72.70
2019-03-26T14:22:06.634Z,77.50
2019-03-26T14:24:36.959Z,78.20
2019-03-26T14:27:07.652Z,80.90
2019-03-26T14:29:38.249Z,84.40
2019-03-26T14:32:08.616Z,85.40
2019-03-26T14:34:39.300Z,88.70
2019-03-26T14:37:09.641Z,91.30
2019-03-26T14:39:40.040Z,89.50
2019-03-26T14:42:10.389Z,84.40
2019-03-26T14:44:41.422Z,84.50
2019-03-26T14:47:12.159Z,83.80
2019-03-26T14:49:42.764Z,84.60
2019-03-26T14:52:13.530Z,82.30
2019-03-26T14:54:44.252Z,83.90
2019-03-26T14:57:14.849Z,80.30
2019-03-26T14:59:45.258Z,81.30
2019-03-26T15:02:15.631Z,79.80
2019-03-26T15:04:46.286Z,80.60
2019-03-26T15:07:17.206Z,79.80
2019-03-26T15:09:47.565Z,78.10
2019-03-26T15:12:18.687Z,76.30
2019-03-26T15:14:49.336Z,76.50
2019-03-26T15:17:19.685Z,75.70
2019-03-26T15:19:50.371Z,75.40
2019-03-26T15:22:21.845Z,74.90
2019-03-26T15:24:52.299Z,73.40
2019-03-26T15:27:23.002Z,68.40
2019-03-26T15:29:53.747Z,64.20
2019-03-26T15:32:24.102Z,64.70
2019-03-26T15:34:54.454Z,63.60
2019-03-26T15:37:25.172Z,59.10
2019-03-26T15:39:55.846Z,56.70
2019-03-26T15:42:26.255Z,60.70
2019-03-26T15:44:56.782Z,56.60
2019-03-26T15:47:27.472Z,51.70
2019-03-26T15:49:57.858Z,54.00
2019-03-26T15:52:28.245Z,53.30
2019-03-26T15:54:58.614Z,53.00
2019-03-26T15:57:28.983Z,50.40
2019-03-26T15:59:59.347Z,46.30
2019-03-26T16:02:49.159Z,42.50
2019-03-26T16:05:19.961Z,41.00
2019-03-26T16:07:50.452Z,40.50
2019-03-26T16:10:21.177Z,41.70
2019-03-26T16:12:51.904Z,40.50
2019-03-26T16:15:22.505Z,41.80
2019-03-26T16:17:52.862Z,41.70
2019-03-26T16:20:23.326Z,41.70
2019-03-26T16:22:54.379Z,42.20
2019-03-26T16:25:25.421Z,42.60
2019-03-26T16:27:57.215Z,44.00
2019-03-26T16:30:30.483Z,42.20
2019-03-26T16:33:00.373Z,42.20
2019-03-26T16:35:31.012Z,42.20
2019-03-26T16:38:04.257Z,43.30
2019-03-26T16:40:34.598Z,43.60
2019-03-26T16:43:04.991Z,43.10
2019-03-26T16:45:35.698Z,43.70
2019-03-26T16:48:06.061Z,44.80
2019-03-26T16:50:36.810Z,43.30
2019-03-26T16:53:07.625Z,44.40
2019-03-26T16:55:38.316Z,44.20
2019-03-26T16:58:08.944Z,42.30
2019-03-26T17:00:39.706Z,43.60
2019-03-26T17:03:10.755Z,43.00
2019-03-26T17:05:41.476Z,42.70
2019-03-26T17:08:12.216Z,43.50
2019-03-26T17:10:42.936Z,44.10
2019-03-26T17:13:13.272Z,44.60
2019-03-26T17:15:44.422Z,46.50
2019-03-26T17:18:14.770Z,47.20
2019-03-26T17:20:45.370Z,46.80
2019-03-26T17:23:16.123Z,47.30
2019-03-26T17:25:46.512Z,47.30
2019-03-26T17:28:16.904Z,47.80
2019-03-26T17:30:47.237Z,48.10
2019-03-26T17:33:17.780Z,49.00
2019-03-26T17:35:48.501Z,49.90
2019-03-26T17:38:18.865Z,50.80
2019-03-26T17:40:49.566Z,50.80
2019-03-26T17:43:20.659Z,50.80
2019-03-26T17:45:51.385Z,51.50
2019-03-26T17:48:21.741Z,50.70
2019-03-26T17:50:52.587Z,49.60
2019-03-26T17:53:23.621Z,50.60
2019-03-26T17:55:54.549Z,49.90
2019-03-26T17:58:24.971Z,49.40
2019-03-26T18:00:55.612Z,50.70
2019-03-26T18:03:27.145Z,51.10
2019-03-26T18:05:57.603Z,51.50
2019-03-26T18:08:28.322Z,52.00
2019-03-26T18:10:59.039Z,52.30
2019-03-26T18:13:30.030Z,52.70
2019-03-26T18:16:00.443Z,52.70
2019-03-26T18:18:31.040Z,53.10
2019-03-26T18:21:01.627Z,53.30
2019-03-26T18:23:32.314Z,53.50
2019-03-26T18:26:02.666Z,53.20
2019-03-26T18:28:33.414Z,52.90
2019-03-26T18:31:03.819Z,51.80
2019-03-26T18:33:34.190Z,51.10
2019-03-26T18:36:04.903Z,50.70
2019-03-26T18:38:35.564Z,50.40
2019-03-26T18:41:06.491Z,50.40
2019-03-26T18:43:36.894Z,50.40
2019-03-26T18:46:07.212Z,50.30
2019-03-26T18:48:37.843Z,50.40
2019-03-26T18:51:08.822Z,50.30
2019-03-26T18:53:39.557Z,50.30
2019-03-26T18:56:10.182Z,50.40
2019-03-26T18:58:40.656Z,50.40
2019-03-26T19:01:11.365Z,50.10
2019-03-26T19:03:41.689Z,50.30
2019-03-26T19:06:12.405Z,50.30
2019-03-26T19:08:43.087Z,50.10
2019-03-26T19:11:13.467Z,50.50
2019-03-26T19:13:44.168Z,51.30
2019-03-26T19:16:14.568Z,51.60
2019-03-26T19:18:44.895Z,52.00
2019-03-26T19:21:15.650Z,52.50
2019-03-26T19:23:46.269Z,52.60
2019-03-26T19:26:16.913Z,52.80
2019-03-26T19:28:47.270Z,52.70
2019-03-26T19:31:17.664Z,53.00
2019-03-26T19:33:48.313Z,52.90
2019-03-26T19:36:18.669Z,52.10
2019-03-26T19:38:49.540Z,52.40
2019-03-26T19:41:20.310Z,52.60
2019-03-26T19:43:50.989Z,51.60
2019-03-26T19:46:21.594Z,51.60
2019-03-26T19:48:52.271Z,51.20
2019-03-26T19:51:22.965Z,50.20
2019-03-26T19:53:53.650Z,50.20
2019-03-26T19:56:24.382Z,50.20
2019-03-26T19:58:55.039Z,50.20
2019-03-26T20:01:25.805Z,50.20
2019-03-26T20:03:56.609Z,50.20
2019-03-26T20:06:27.542Z,51.00
2019-03-26T20:08:57.898Z,51.40
2019-03-26T20:11:28.371Z,51.40
2019-03-26T20:13:59.539Z,51.50
2019-03-26T20:16:41.346Z,52.00
2019-03-26T20:19:02.481Z,52.40
2019-03-26T20:21:32.982Z,52.40
2019-03-26T20:24:03.792Z,52.10
2019-03-26T20:26:34.446Z,52.20
2019-03-26T20:29:04.805Z,52.50
2019-03-26T20:31:35.169Z,51.90
2019-03-26T20:34:06.297Z,51.10
2019-03-26T20:36:36.618Z,51.00
2019-03-26T20:39:08.773Z,51.40
2019-03-26T20:41:39.379Z,51.90
2019-03-26T20:44:09.731Z,52.10
2019-03-26T20:46:40.094Z,51.90
2019-03-26T20:49:11.185Z,52.10
2019-03-26T20:51:41.912Z,52.50
2019-03-26T20:54:12.718Z,52.30
2019-03-26T20:56:43.880Z,51.80
2019-03-26T20:59:14.560Z,52.20
2019-03-26T21:01:45.654Z,52.00
2019-03-26T21:04:16.704Z,52.10
2019-03-26T21:06:47.032Z,52.20
2019-03-26T21:09:17.504Z,52.40
2019-03-26T21:11:47.832Z,52.50
2019-03-26T21:14:18.204Z,53.00
2019-03-26T21:16:49.269Z,54.40
2019-03-26T21:19:19.613Z,56.00
2019-03-26T21:21:52.905Z,56.60
2019-03-26T21:24:22.385Z,57.70
2019-03-26T21:26:52.718Z,57.90
2019-03-26T21:29:23.778Z,56.90
2019-03-26T21:31:54.527Z,55.80
2019-03-26T21:34:30.380Z,55.20
2019-03-26T21:36:57.037Z,54.30
2019-03-26T21:39:27.385Z,54.30
2019-03-26T21:41:57.765Z,54.20
2019-03-26T21:44:28.108Z,54.50
2019-03-26T21:46:58.815Z,55.80
2019-03-26T21:49:29.406Z,57.00
2019-03-26T21:51:59.739Z,58.60
2019-03-26T21:54:30.056Z,60.00
2019-03-26T21:57:00.434Z,61.10
2019-03-26T21:59:31.085Z,62.80
2019-03-26T22:02:01.436Z,63.30
2019-03-26T22:04:32.452Z,63.90
2019-03-26T22:07:03.193Z,64.90
2019-03-26T22:09:33.516Z,66.00
2019-03-26T22:12:03.870Z,67.80
2019-03-26T22:14:34.591Z,67.80
2019-03-26T22:17:05.011Z,71.10
2019-03-26T22:19:35.377Z,71.80
2019-03-26T22:22:06.161Z,72.50
2019-03-26T22:24:36.516Z,72.70
2019-03-26T22:27:07.563Z,73.30
2019-03-26T22:29:37.932Z,74.70
2019-03-26T22:32:08.280Z,78.80
2019-03-26T22:34:39.018Z,80.60
2019-03-26T22:37:09.762Z,81.50
2019-03-26T22:39:40.279Z,82.70
2019-03-26T22:42:10.606Z,85.20
2019-03-26T22:45:00.400Z,86.10
2019-03-26T22:47:30.736Z,87.50
2019-03-26T22:50:01.736Z,88.70
2019-03-26T22:52:32.380Z,90.10
2019-03-26T22:55:02.731Z,90.30
2019-03-26T22:57:33.756Z,90.50
2019-03-26T23:00:18.841Z,90.90
2019-03-26T23:02:49.673Z,90.80
2019-03-26T23:05:20.018Z,90.90
2019-03-26T23:07:51.066Z,91.40
2019-03-26T23:10:21.461Z,91.50
2019-03-26T23:12:51.846Z,91.80
2019-03-26T23:15:25.834Z,92.10
2019-03-26T23:17:56.208Z,92.10
2019-03-26T23:20:26.901Z,92.00
2019-03-26T23:22:57.630Z,92.40
2019-03-26T23:25:28.293Z,92.20
2019-03-26T23:27:58.620Z,92.20
2019-03-26T23:30:29.340Z,92.30
2019-03-26T23:33:00.077Z,92.50
2019-03-26T23:35:30.516Z,93.00
2019-03-26T23:38:01.545Z,93.20
2019-03-26T23:40:31.914Z,93.80
2019-03-26T23:43:02.288Z,93.70
2019-03-26T23:45:33.316Z,93.90
2019-03-26T23:48:03.976Z,94.80
2019-03-26T23:50:34.694Z,95.00
2019-03-26T23:53:05.342Z,95.60
2019-03-26T23:55:35.706Z,95.80
2019-03-26T23:58:06.397Z,95.80
